Time;durP1;ratioP1;P1;durP2;ratioP2;P2;SDS_P1;SDS_P2;PMS_P1;PMS_P2;Temp;Humidity;BMP_temperature;BMP_pressure;BME280_temperature;BME280_humidity;BME280_pressure;Samples;Min_cycle;Max_cycle;Signal;HPM_P1;HPM_P2
2022/06/22 00:01:41;;;;;;;0.30;0.30;;;18.30;99.90;;;;;;5117112;28;20446;-69
2022/06/22 00:04:25;;;;;;;0.30;0.30;;;18.30;99.90;;;;;;5116720;28;20729;-69
2022/06/22 00:06:58;;;;;;;0.30;0.30;;;18.20;99.90;;;;;;5116938;28;20457;-69
2022/06/22 00:09:30;;;;;;;0.30;0.30;;;18.20;99.90;;;;;;5116842;28;20398;-70
2022/06/22 00:11:57;;;;;;;0.40;0.40;;;18.20;99.90;;;;;;5116924;28;20481;-68
2022/06/22 00:14:41;;;;;;;0.30;0.30;;;18.20;99.90;;;;;;5116498;28;20402;-69
2022/06/22 00:17:21;;;;;;;0.30;0.30;;;18.20;99.90;;;;;;5116955;28;20394;-68
2022/06/22 00:19:47;;;;;;;0.30;0.30;;;18.20;99.90;;;;;;5116783;28;20405;-68
2022/06/22 00:22:19;;;;;;;0.50;0.50;;;18.20;99.90;;;;;;5116430;28;20414;-70
2022/06/22 00:24:45;;;;;;;0.30;0.30;;;18.20;99.90;;;;;;5116733;28;20467;-69
2022/06/22 00:27:25;;;;;;;0.40;0.40;;;18.20;99.90;;;;;;5116779;28;20937;-69
2022/06/22 00:30:20;;;;;;;0.30;0.30;;;18.20;99.90;;;;;;5116725;28;20436;-69
2022/06/22 00:33:01;;;;;;;0.70;0.70;;;18.10;99.90;;;;;;5116129;28;20405;-69
2022/06/22 00:35:35;;;;;;;0.30;0.30;;;18.10;99.90;;;;;;5116286;28;20417;-69
2022/06/22 00:38:00;;;;;;;0.30;0.30;;;18.20;99.90;;;;;;5116396;28;20425;-69
2022/06/22 00:40:26;;;;;;;0.90;0.60;;;18.10;99.90;;;;;;5115270;28;20956;-69
2022/06/22 00:42:52;;;;;;;0.40;0.40;;;18.00;99.90;;;;;;5116214;28;20175;-69
2022/06/22 00:45:29;;;;;;;1.30;1.20;;;18.10;99.90;;;;;;5116259;28;20422;-69
2022/06/22 00:48:04;;;;;;;0.30;0.30;;;18.10;99.90;;;;;;5116386;28;20160;-70
2022/06/22 00:50:43;;;;;;;0.30;0.30;;;18.10;99.90;;;;;;5116343;28;20431;-68
2022/06/22 00:53:13;;;;;;;0.30;0.30;;;18.10;99.90;;;;;;5115970;28;20428;-69
2022/06/22 00:55:42;;;;;;;0.40;0.40;;;18.10;99.90;;;;;;5115897;28;20437;-68
2022/06/22 00:58:08;;;;;;;0.30;0.30;;;18.20;99.90;;;;;;5115931;28;20398;-68
2022/06/22 01:00:39;;;;;;;0.30;0.30;;;18.20;99.90;;;;;;5116002;28;20952;-69
2022/06/22 01:03:18;;;;;;;0.50;0.50;;;18.20;99.90;;;;;;5115659;28;20663;-70
2022/06/22 01:05:55;;;;;;;0.30;0.30;;;18.10;99.90;;;;;;5115893;28;20759;-69
2022/06/22 01:08:45;;;;;;;0.30;0.30;;;18.10;99.90;;;;;;5115770;28;20797;-69
2022/06/22 01:14:45;;;;;;;0.30;0.30;;;18.00;99.90;;;;;;5115755;28;20410;-69
2022/06/22 01:17:20;;;;;;;0.97;0.77;;;18.00;99.90;;;;;;5115571;28;20410;-68
2022/06/22 01:20:09;;;;;;;0.40;0.40;;;18.10;99.90;;;;;;5115674;28;20389;-68
2022/06/22 01:22:45;;;;;;;0.67;0.67;;;18.00;99.90;;;;;;5115262;28;20835;-69
2022/06/22 01:25:20;;;;;;;0.70;0.70;;;18.10;99.90;;;;;;5115355;28;20441;-69
2022/06/22 01:27:46;;;;;;;0.30;0.30;;;18.20;99.90;;;;;;5115529;28;20821;-68
2022/06/22 01:30:28;;;;;;;0.30;0.30;;;18.20;99.90;;;;;;5115406;28;20403;-70
2022/06/22 01:32:55;;;;;;;0.30;0.30;;;18.20;99.90;;;;;;5115179;28;20429;-70
2022/06/22 01:35:31;;;;;;;0.30;0.30;;;18.10;99.90;;;;;;5115202;28;20449;-69
2022/06/22 01:37:57;;;;;;;0.30;0.30;;;18.10;99.90;;;;;;5115129;28;20452;-70
2022/06/22 01:40:45;;;;;;;0.30;0.30;;;18.20;99.90;;;;;;5115020;28;20802;-69
2022/06/22 01:43:44;;;;;;;0.30;0.30;;;18.20;99.90;;;;;;5114860;28;20451;-69
2022/06/22 01:46:16;;;;;;;0.30;0.30;;;18.10;99.90;;;;;;5097052;28;20437;-70
2022/06/22 01:48:53;;;;;;;0.30;0.30;;;18.10;99.90;;;;;;5114804;28;20390;-69
2022/06/22 01:51:31;;;;;;;0.40;0.40;;;18.10;99.90;;;;;;5114805;28;20898;-69
2022/06/22 01:54:04;;;;;;;0.33;0.33;;;18.10;99.90;;;;;;5114509;28;20398;-69
2022/06/22 01:56:44;;;;;;;0.40;0.40;;;18.10;99.90;;;;;;5114550;28;20429;-69
2022/06/22 01:59:48;;;;;;;0.30;0.30;;;18.10;99.90;;;;;;5114910;28;20475;-69
2022/06/22 02:02:20;;;;;;;0.30;0.30;;;18.10;99.90;;;;;;5114677;28;20409;-69
2022/06/22 02:04:55;;;;;;;0.30;0.30;;;18.10;99.90;;;;;;5115079;28;20463;-69
2022/06/22 02:07:44;;;;;;;0.40;0.40;;;18.10;99.90;;;;;;5114844;27;20477;-69
2022/06/22 02:10:35;;;;;;;0.40;0.40;;;18.10;99.90;;;;;;5114825;28;20394;-69
2022/06/22 02:13:24;;;;;;;0.50;0.50;;;18.10;99.90;;;;;;5114560;28;20405;-69
2022/06/22 02:16:03;;;;;;;0.40;0.40;;;18.10;99.90;;;;;;5113104;28;20926;-69
2022/06/22 02:18:38;;;;;;;0.30;0.30;;;18.10;99.90;;;;;;5114726;28;20925;-69
2022/06/22 02:21:21;;;;;;;0.30;0.30;;;18.10;99.90;;;;;;5114426;28;20582;-69
2022/06/22 02:23:57;;;;;;;1.07;0.73;;;18.10;99.90;;;;;;5114155;28;20409;-69
2022/06/22 02:26:51;;;;;;;0.40;0.40;;;18.20;99.90;;;;;;5114260;28;20428;-69
2022/06/22 02:29:21;;;;;;;0.40;0.40;;;18.20;99.90;;;;;;5114369;28;20783;-69
2022/06/22 02:31:47;;;;;;;0.40;0.40;;;18.20;99.90;;;;;;5114386;28;20391;-69
2022/06/22 02:34:16;;;;;;;0.30;0.30;;;18.20;99.90;;;;;;5113931;28;20771;-69
2022/06/22 02:36:46;;;;;;;1.63;0.67;;;18.30;99.90;;;;;;5114255;28;20413;-69
2022/06/22 02:39:13;;;;;;;0.30;0.30;;;18.30;99.90;;;;;;5114214;28;20894;-69
2022/06/22 02:44:33;;;;;;;0.60;0.60;;;18.40;99.90;;;;;;5114106;28;20447;-69
2022/06/22 02:47:46;;;;;;;0.40;0.40;;;18.40;99.90;;;;;;5114026;28;20411;-69
2022/06/22 02:50:42;;;;;;;0.40;0.40;;;18.50;99.90;;;;;;5071332;28;20427;-68
2022/06/22 02:53:25;;;;;;;0.63;0.63;;;18.50;99.90;;;;;;5071490;28;20431;-69
2022/06/22 02:55:52;;;;;;;0.30;0.30;;;18.50;99.90;;;;;;5107527;28;20491;-69
2022/06/22 02:58:33;;;;;;;10.00;1.37;;;18.50;99.90;;;;;;5114072;28;20882;-70
2022/06/22 03:01:05;;;;;;;2.27;1.00;;;18.50;99.90;;;;;;5114059;28;20816;-68
2022/06/22 03:03:33;;;;;;;0.40;0.40;;;18.40;99.90;;;;;;5115977;28;20445;-69
2022/06/22 03:05:58;;;;;;;0.30;0.30;;;18.40;99.90;;;;;;5118043;28;20425;-70
2022/06/22 03:08:24;;;;;;;0.30;0.30;;;18.50;99.90;;;;;;5118289;28;20394;-69
2022/06/22 03:11:01;;;;;;;0.30;0.30;;;18.50;99.90;;;;;;5118141;28;20247;-69
2022/06/22 03:13:44;;;;;;;0.30;0.30;;;18.40;99.90;;;;;;5117864;28;20389;-69
2022/06/22 03:16:25;;;;;;;0.30;0.30;;;18.40;99.90;;;;;;5117853;28;20421;-69
2022/06/22 03:18:52;;;;;;;0.60;0.60;;;18.50;99.90;;;;;;5116638;28;20964;-69
2022/06/22 03:21:18;;;;;;;0.60;0.60;;;18.40;99.90;;;;;;5117876;28;20441;-69
2022/06/22 03:23:58;;;;;;;0.70;0.70;;;18.40;99.90;;;;;;5117448;28;20555;-69
2022/06/22 03:26:33;;;;;;;0.57;0.57;;;18.50;99.90;;;;;;5117588;28;20556;-69
2022/06/22 03:29:20;;;;;;;0.47;0.47;;;18.50;99.90;;;;;;5118049;28;20391;-69
2022/06/22 03:32:00;;;;;;;1.13;1.13;;;18.50;99.90;;;;;;5117709;28;20394;-69
2022/06/22 03:34:30;;;;;;;0.63;0.63;;;18.50;99.90;;;;;;5117414;28;20449;-69
2022/06/22 03:37:27;;;;;;;0.60;0.60;;;18.40;99.90;;;;;;5117448;28;20402;-69
2022/06/22 03:40:00;;;;;;;0.30;0.30;;;18.50;99.90;;;;;;5117557;28;20459;-70
2022/06/22 03:42:35;;;;;;;0.30;0.30;;;18.50;99.90;;;;;;5117854;28;20405;-69
2022/06/22 03:45:04;;;;;;;0.40;0.40;;;18.50;99.90;;;;;;5117444;28;20762;-70
2022/06/22 03:47:35;;;;;;;0.50;0.50;;;18.50;99.90;;;;;;5117328;28;20394;-69
2022/06/22 03:50:11;;;;;;;0.30;0.30;;;18.50;99.90;;;;;;5117329;28;20402;-70
2022/06/22 03:52:52;;;;;;;1.20;1.10;;;18.60;99.90;;;;;;5117151;28;20485;-70
2022/06/22 03:55:23;;;;;;;0.30;0.30;;;18.60;99.90;;;;;;5117027;28;20480;-69
2022/06/22 03:57:52;;;;;;;0.77;0.77;;;18.60;99.90;;;;;;5117299;28;20394;-68
2022/06/22 04:00:19;;;;;;;0.80;0.80;;;18.50;99.90;;;;;;5117274;28;20449;-68
2022/06/22 04:02:45;;;;;;;1.27;0.70;;;18.50;99.90;;;;;;5116907;27;20402;-69
2022/06/22 04:05:22;;;;;;;2.20;2.10;;;18.50;99.90;;;;;;5117015;28;20470;-69
2022/06/22 04:07:49;;;;;;;0.30;0.30;;;18.50;99.90;;;;;;5116907;28;20908;-69
2022/06/22 04:10:34;;;;;;;0.30;0.30;;;18.50;99.90;;;;;;5117013;28;20406;-69
2022/06/22 04:13:04;;;;;;;0.30;0.30;;;18.50;99.90;;;;;;5116697;28;20408;-69
2022/06/22 04:15:44;;;;;;;1.90;1.80;;;18.60;99.90;;;;;;5115486;28;20453;-68
2022/06/22 04:18:20;;;;;;;0.30;0.30;;;18.70;99.90;;;;;;5116904;28;20404;-69
2022/06/22 04:20:50;;;;;;;0.30;0.30;;;18.70;99.90;;;;;;5116694;28;20514;-69
2022/06/22 04:23:27;;;;;;;0.30;0.30;;;18.70;99.90;;;;;;5116363;28;20941;-69
2022/06/22 04:25:57;;;;;;;0.40;0.40;;;18.60;99.90;;;;;;5116568;28;20425;-69
2022/06/22 04:28:24;;;;;;;0.70;0.70;;;18.60;99.90;;;;;;5116340;28;20442;-70
2022/06/22 04:30:52;;;;;;;0.40;0.40;;;18.70;99.90;;;;;;5116280;28;20406;-69
2022/06/22 04:33:29;;;;;;;0.30;0.30;;;18.70;99.90;;;;;;5116291;28;20402;-69
2022/06/22 04:36:04;;;;;;;0.40;0.40;;;18.70;99.90;;;;;;5116461;28;20453;-69
2022/06/22 04:38:56;;;;;;;0.40;0.40;;;18.70;99.90;;;;;;5116318;28;20398;-69
2022/06/22 04:41:27;;;;;;;0.30;0.30;;;18.70;99.90;;;;;;5115877;27;20530;-69
2022/06/22 04:43:56;;;;;;;0.50;0.50;;;18.80;99.90;;;;;;5116173;28;20413;-70
2022/06/22 04:46:27;;;;;;;0.30;0.30;;;18.80;99.90;;;;;;5116079;27;20461;-69
2022/06/22 04:48:56;;;;;;;1.40;1.33;;;18.80;99.90;;;;;;5116229;28;20402;-69
2022/06/22 04:51:32;;;;;;;0.40;0.40;;;18.80;99.90;;;;;;5116038;28;20424;-68
2022/06/22 04:54:13;;;;;;;0.40;0.40;;;18.80;99.90;;;;;;5114583;28;20418;-69
2022/06/22 04:56:44;;;;;;;0.30;0.30;;;18.80;99.90;;;;;;5115875;28;20762;-69
2022/06/22 04:59:13;;;;;;;0.30;0.30;;;18.90;99.90;;;;;;5116143;28;20764;-70
2022/06/22 05:01:44;;;;;;;0.30;0.30;;;18.90;99.90;;;;;;5115929;28;20453;-69
2022/06/22 05:04:23;;;;;;;0.30;0.30;;;18.90;99.90;;;;;;5115513;28;20405;-69
2022/06/22 05:07:28;;;;;;;0.30;0.30;;;18.70;99.90;;;;;;5115957;28;20424;-68
2022/06/22 05:09:56;;;;;;;0.77;0.77;;;18.70;99.90;;;;;;5113502;28;20413;-68
2022/06/22 05:12:25;;;;;;;0.30;0.30;;;18.80;99.90;;;;;;5115391;28;20402;-70
2022/06/22 05:14:55;;;;;;;2.43;0.60;;;18.80;99.90;;;;;;5115434;28;20422;-69
2022/06/22 05:17:35;;;;;;;0.30;0.30;;;18.80;99.90;;;;;;5115523;28;20833;-69
2022/06/22 05:20:15;;;;;;;0.30;0.30;;;18.80;99.90;;;;;;5115489;28;20493;-69
2022/06/22 05:22:41;;;;;;;0.70;0.70;;;18.80;99.90;;;;;;5115353;28;20425;-69
2022/06/22 05:25:13;;;;;;;0.40;0.40;;;18.80;99.90;;;;;;5115041;28;20514;-69
2022/06/22 05:28:06;;;;;;;0.30;0.30;;;18.90;99.90;;;;;;5114042;28;20180;-69
2022/06/22 05:30:40;;;;;;;0.67;0.67;;;18.90;99.90;;;;;;5111145;28;20422;-69
2022/06/22 05:33:13;;;;;;;1.17;0.60;;;19.00;99.90;;;;;;5115346;28;20406;-69
2022/06/22 05:35:46;;;;;;;0.30;0.30;;;19.10;99.90;;;;;;5115115;28;20438;-69
2022/06/22 05:38:14;;;;;;;1.57;1.47;;;19.10;99.90;;;;;;5115377;28;20434;-69
2022/06/22 05:40:41;;;;;;;0.30;0.30;;;19.10;99.90;;;;;;5115064;28;20455;-68
2022/06/22 05:43:08;;;;;;;0.30;0.30;;;19.20;99.90;;;;;;5114858;28;20500;-69
2022/06/22 05:45:39;;;;;;;0.40;0.40;;;19.20;99.90;;;;;;5114979;28;20430;-70
2022/06/22 05:48:06;;;;;;;0.30;0.30;;;19.20;99.90;;;;;;5115038;28;20480;-69
2022/06/22 05:50:53;;;;;;;0.30;0.30;;;19.20;99.90;;;;;;5114948;28;20408;-69
2022/06/22 05:53:56;;;;;;;0.30;0.30;;;19.20;99.90;;;;;;5114739;28;20417;-69
2022/06/22 05:56:33;;;;;;;0.30;0.30;;;19.30;99.90;;;;;;5108096;28;20530;-68
2022/06/22 05:59:15;;;;;;;4.53;0.97;;;19.20;99.90;;;;;;5114795;28;20469;-69
2022/06/22 06:01:59;;;;;;;0.90;0.90;;;19.30;99.90;;;;;;5114534;28;20456;-69
2022/06/22 06:04:40;;;;;;;0.30;0.30;;;19.40;99.90;;;;;;5114746;28;20885;-69
2022/06/22 06:07:31;;;;;;;0.30;0.30;;;19.60;99.90;;;;;;5114706;28;20397;-69
2022/06/22 06:09:56;;;;;;;0.30;0.30;;;19.80;99.90;;;;;;5106862;28;20446;-70
2022/06/22 06:12:34;;;;;;;0.30;0.30;;;20.10;99.90;;;;;;5114419;28;20499;-68
2022/06/22 06:15:04;;;;;;;0.30;0.30;;;20.50;99.90;;;;;;5114612;28;20442;-70
2022/06/22 06:17:45;;;;;;;0.40;0.40;;;20.70;99.90;;;;;;5114397;28;20409;-68
2022/06/22 06:20:23;;;;;;;0.30;0.30;;;20.70;99.90;;;;;;5114539;28;20441;-69
2022/06/22 06:22:56;;;;;;;0.67;0.67;;;20.70;99.90;;;;;;5114119;28;20425;-69
2022/06/22 06:28:20;;;;;;;0.47;0.47;;;20.90;99.90;;;;;;5114571;28;20404;-69
2022/06/22 06:30:49;;;;;;;0.30;0.30;;;20.90;99.90;;;;;;5114186;28;20413;-69
2022/06/22 06:33:32;;;;;;;1.80;1.27;;;21.00;99.90;;;;;;5114029;28;20402;-70
2022/06/22 06:36:04;;;;;;;0.57;0.57;;;21.20;99.90;;;;;;5114023;28;20426;-70
2022/06/22 06:38:37;;;;;;;0.40;0.40;;;21.30;99.90;;;;;;5113483;28;20394;-70
2022/06/22 06:41:13;;;;;;;0.30;0.30;;;21.40;99.90;;;;;;5113906;28;20464;-70
2022/06/22 06:43:59;;;;;;;0.50;0.50;;;21.50;99.90;;;;;;5113896;28;20489;-69
2022/06/22 06:46:39;;;;;;;0.30;0.30;;;21.50;99.90;;;;;;5113780;28;20422;-69
2022/06/22 06:49:28;;;;;;;0.30;0.30;;;21.50;99.90;;;;;;5114292;28;20399;-69
2022/06/22 06:52:04;;;;;;;0.30;0.30;;;21.50;99.90;;;;;;5114059;28;20400;-70
2022/06/22 06:54:47;;;;;;;0.30;0.30;;;21.40;99.90;;;;;;5113738;28;20816;-70
2022/06/22 06:57:19;;;;;;;0.30;0.30;;;21.20;99.90;;;;;;5114163;28;20788;-69
2022/06/22 06:59:51;;;;;;;0.30;0.30;;;20.90;99.90;;;;;;5113973;28;20394;-69
2022/06/22 07:02:38;;;;;;;0.40;0.40;;;20.90;99.90;;;;;;5113719;28;20405;-69
2022/06/22 07:05:10;;;;;;;0.30;0.30;;;20.80;99.90;;;;;;5113779;28;20926;-69
2022/06/22 07:07:57;;;;;;;0.30;0.30;;;20.90;99.90;;;;;;5113984;28;20391;-68
2022/06/22 07:10:48;;;;;;;0.37;0.37;;;20.80;99.90;;;;;;5113943;28;20413;-69
2022/06/22 07:13:17;;;;;;;0.30;0.30;;;20.70;99.90;;;;;;5113786;28;20436;-69
2022/06/22 07:15:47;;;;;;;0.30;0.30;;;20.70;99.90;;;;;;5113713;28;20426;-70
2022/06/22 07:18:36;;;;;;;0.30;0.30;;;20.70;99.90;;;;;;5114033;28;20484;-69
2022/06/22 07:21:32;;;;;;;0.30;0.30;;;20.70;99.90;;;;;;5113779;28;21006;-70
2022/06/22 07:24:18;;;;;;;0.30;0.30;;;20.60;99.90;;;;;;5113562;28;20418;-70
2022/06/22 07:27:08;;;;;;;0.30;0.30;;;20.50;99.90;;;;;;5113783;28;20410;-69
2022/06/22 07:29:43;;;;;;;0.40;0.40;;;20.50;99.90;;;;;;5114052;28;20401;-69
2022/06/22 07:32:35;;;;;;;0.30;0.30;;;20.40;99.90;;;;;;5112205;28;20925;-69
2022/06/22 07:35:08;;;;;;;0.30;0.30;;;20.40;99.90;;;;;;5113587;28;20972;-69
2022/06/22 07:37:45;;;;;;;0.30;0.30;;;20.30;99.90;;;;;;5113524;28;20501;-69
2022/06/22 07:40:17;;;;;;;2.83;0.70;;;20.20;99.90;;;;;;5113928;28;20448;-70
2022/06/22 07:42:48;;;;;;;0.30;0.30;;;20.20;99.90;;;;;;5113574;28;20441;-69
2022/06/22 07:45:17;;;;;;;0.30;0.30;;;20.30;99.90;;;;;;5113687;28;20425;-69
2022/06/22 07:47:58;;;;;;;0.30;0.30;;;20.30;99.90;;;;;;5113514;28;20499;-70
2022/06/22 07:50:29;;;;;;;0.30;0.30;;;20.30;99.90;;;;;;5117231;28;20466;-69
2022/06/22 07:53:16;;;;;;;0.30;0.30;;;20.30;99.90;;;;;;5117527;28;20544;-69
2022/06/22 07:56:12;;;;;;;0.30;0.30;;;20.20;99.90;;;;;;5117239;28;20516;-68
2022/06/22 07:59:03;;;;;;;0.50;0.50;;;20.20;99.90;;;;;;5117100;28;20415;-70
2022/06/22 08:01:33;;;;;;;0.30;0.30;;;20.20;99.90;;;;;;5109726;28;20552;-69
2022/06/22 08:04:09;;;;;;;0.30;0.30;;;20.20;99.90;;;;;;5117110;28;20401;-69
2022/06/22 08:06:43;;;;;;;1.03;1.03;;;20.30;99.90;;;;;;5117011;28;20441;-69
2022/06/22 08:09:21;;;;;;;0.30;0.30;;;20.30;99.90;;;;;;5117637;28;20398;-68
2022/06/22 08:12:14;;;;;;;0.30;0.30;;;20.40;99.90;;;;;;5117275;28;20411;-70
2022/06/22 08:14:48;;;;;;;0.30;0.30;;;20.50;99.90;;;;;;5116937;28;20443;-69
2022/06/22 08:17:29;;;;;;;0.40;0.40;;;20.60;99.90;;;;;;5116696;28;20776;-69
2022/06/22 08:19:55;;;;;;;0.30;0.30;;;20.80;99.90;;;;;;5116959;28;20405;-69
2022/06/22 08:22:21;;;;;;;0.40;0.40;;;20.90;99.90;;;;;;5116381;28;20478;-68
2022/06/22 08:24:52;;;;;;;0.47;0.47;;;20.90;99.90;;;;;;5116512;28;20198;-69
2022/06/22 08:27:20;;;;;;;0.40;0.40;;;21.00;99.90;;;;;;5116684;28;20419;-69
2022/06/22 08:29:48;;;;;;;0.30;0.30;;;21.10;99.90;;;;;;5116646;28;20432;-69
2022/06/22 08:32:34;;;;;;;0.40;0.40;;;21.10;99.90;;;;;;5116495;28;20403;-68
2022/06/22 08:35:23;;;;;;;0.30;0.30;;;21.10;99.90;;;;;;5116358;28;20428;-69
2022/06/22 08:38:16;;;;;;;0.73;0.73;;;21.00;99.90;;;;;;5116410;28;20394;-69
2022/06/22 08:40:50;;;;;;;0.30;0.30;;;20.90;99.90;;;;;;5116437;28;20449;-69
2022/06/22 08:43:28;;;;;;;0.43;0.40;;;20.80;99.90;;;;;;5114934;28;20526;-70
2022/06/22 08:45:56;;;;;;;0.40;0.40;;;20.70;99.90;;;;;;5116376;28;20470;-69
2022/06/22 08:48:35;;;;;;;0.30;0.30;;;20.70;99.90;;;;;;5116148;28;20398;-69
2022/06/22 08:51:14;;;;;;;0.40;0.40;;;20.60;99.90;;;;;;5116113;28;20423;-68
2022/06/22 08:53:48;;;;;;;0.90;0.67;;;20.50;99.90;;;;;;5116103;28;20405;-68
2022/06/22 08:56:26;;;;;;;0.40;0.40;;;20.50;99.90;;;;;;5115958;28;20428;-70
2022/06/22 08:59:13;;;;;;;0.30;0.30;;;20.40;99.90;;;;;;5116192;28;20413;-69
2022/06/22 09:01:40;;;;;;;0.30;0.30;;;20.40;99.90;;;;;;5115061;27;20453;-69
2022/06/22 09:04:33;;;;;;;0.30;0.30;;;20.50;99.90;;;;;;5115789;28;20398;-70
2022/06/22 09:07:05;;;;;;;0.30;0.30;;;20.50;99.90;;;;;;5115852;28;20383;-68
2022/06/22 09:09:42;;;;;;;0.50;0.50;;;20.60;99.90;;;;;;5115975;28;20406;-69
2022/06/22 09:12:29;;;;;;;0.30;0.30;;;20.50;99.90;;;;;;5115978;28;20405;-70
2022/06/22 09:15:15;;;;;;;0.30;0.30;;;20.40;99.90;;;;;;5115642;28;20472;-70
2022/06/22 09:17:52;;;;;;;0.40;0.40;;;20.40;99.90;;;;;;5115754;28;20771;-69
2022/06/22 09:20:28;;;;;;;0.30;0.30;;;20.50;99.90;;;;;;5115715;28;20515;-69
2022/06/22 09:22:57;;;;;;;0.30;0.30;;;20.50;99.90;;;;;;5115227;28;20437;-69
2022/06/22 09:25:37;;;;;;;0.30;0.30;;;20.40;99.90;;;;;;5115422;28;20456;-69
2022/06/22 09:28:38;;;;;;;0.40;0.40;;;20.50;99.90;;;;;;5115329;28;20389;-69
2022/06/22 09:31:33;;;;;;;0.30;0.30;;;20.50;99.90;;;;;;5079602;28;20500;-69
2022/06/22 09:34:17;;;;;;;0.30;0.30;;;20.60;99.90;;;;;;5115449;28;20398;-69
2022/06/22 09:36:55;;;;;;;0.30;0.30;;;20.60;99.90;;;;;;5115247;28;20407;-69
2022/06/22 09:39:57;;;;;;;0.30;0.30;;;20.70;99.90;;;;;;5115435;28;20902;-69
2022/06/22 09:43:00;;;;;;;0.30;0.30;;;20.80;99.90;;;;;;5115194;28;20830;-70
2022/06/22 09:45:26;;;;;;;0.30;0.30;;;20.90;99.90;;;;;;5115153;28;20446;-69
2022/06/22 09:48:33;;;;;;;0.70;0.50;;;21.10;99.90;;;;;;5115078;28;20422;-70
2022/06/22 09:51:33;;;;;;;0.30;0.30;;;21.10;99.90;;;;;;5115112;28;20172;-69
2022/06/22 09:54:05;;;;;;;9.63;0.90;;;21.40;99.90;;;;;;5114683;28;20456;-70
2022/06/22 09:57:07;;;;;;;0.30;0.30;;;21.40;99.90;;;;;;5114761;28;20972;-69
2022/06/22 09:59:47;;;;;;;0.30;0.30;;;21.50;99.90;;;;;;5113727;28;20822;-69
2022/06/22 10:02:43;;;;;;;0.30;0.30;;;21.70;99.90;;;;;;5114767;28;20882;-69
2022/06/22 10:05:28;;;;;;;0.30;0.30;;;21.90;99.90;;;;;;5114855;28;20462;-69
2022/06/22 10:08:38;;;;;;;0.30;0.30;;;22.20;99.90;;;;;;5114609;28;20408;-69
2022/06/22 10:11:13;;;;;;;0.30;0.30;;;22.50;99.90;;;;;;5112772;28;20423;-69
2022/06/22 10:13:42;;;;;;;0.30;0.30;;;22.50;99.90;;;;;;5114428;28;20760;-69
2022/06/22 10:16:14;;;;;;;0.40;0.40;;;22.80;99.90;;;;;;5113303;28;20479;-70
2022/06/22 10:19:02;;;;;;;0.30;0.30;;;22.80;99.50;;;;;;5114466;28;20890;-69
2022/06/22 10:21:40;;;;;;;0.30;0.30;;;22.70;99.90;;;;;;5114695;28;20453;-70
2022/06/22 10:24:05;;;;;;;0.30;0.30;;;22.70;99.90;;;;;;5114432;28;20470;-69
2022/06/22 10:26:50;;;;;;;0.70;0.70;;;22.50;99.90;;;;;;5114259;28;20424;-70
2022/06/22 10:29:31;;;;;;;0.30;0.30;;;22.40;99.90;;;;;;5114335;28;20254;-69
2022/06/22 10:32:33;;;;;;;0.30;0.30;;;22.50;99.90;;;;;;5114483;28;20401;-70
2022/06/22 10:35:17;;;;;;;0.30;0.30;;;22.50;99.90;;;;;;5114433;28;20407;-69
2022/06/22 10:38:10;;;;;;;0.40;0.40;;;22.80;99.90;;;;;;5114404;28;20394;-69
2022/06/22 10:47:07;;;;;;;0.60;0.60;;;23.30;99.90;;;;;;5114127;28;20431;-69
2022/06/22 10:50:07;;;;;;;0.30;0.30;;;23.30;99.90;;;;;;5114217;28;20480;-69
2022/06/22 10:52:56;;;;;;;0.30;0.30;;;23.40;99.90;;;;;;5114020;28;20384;-69
2022/06/22 10:55:34;;;;;;;0.30;0.30;;;23.50;99.90;;;;;;5113998;28;20614;-70
2022/06/22 10:58:08;;;;;;;0.30;0.30;;;23.70;99.80;;;;;;5113980;28;20406;-70
2022/06/22 11:00:42;;;;;;;0.30;0.30;;;23.90;99.90;;;;;;5113912;28;20441;-70
2022/06/22 11:03:09;;;;;;;0.30;0.30;;;23.80;98.80;;;;;;5113838;28;20520;-71
2022/06/22 11:06:01;;;;;;;0.30;0.30;;;23.80;99.30;;;;;;5113572;28;20781;-70
2022/06/22 11:08:42;;;;;;;0.30;0.30;;;23.60;97.30;;;;;;5113722;28;20426;-70
2022/06/22 11:11:24;;;;;;;0.30;0.30;;;23.80;97.90;;;;;;5113931;28;20402;-70
2022/06/22 11:14:26;;;;;;;0.30;0.30;;;24.10;97.50;;;;;;5113850;28;20416;-69
2022/06/22 11:17:01;;;;;;;0.40;0.40;;;24.60;98.50;;;;;;5113787;28;20394;-69
2022/06/22 11:19:48;;;;;;;0.30;0.30;;;24.70;97.10;;;;;;5113835;28;20397;-69
2022/06/22 11:22:35;;;;;;;0.30;0.30;;;24.60;96.60;;;;;;5113459;28;20772;-70
2022/06/22 11:31:58;;;;;;;0.30;0.30;;;24.30;96.20;;;;;;5117955;28;20413;-69
2022/06/22 11:34:33;;;;;;;0.30;0.30;;;24.20;97.30;;;;;;5117518;28;20388;-69
2022/06/22 11:37:20;;;;;;;0.67;0.67;;;24.00;96.90;;;;;;5117606;28;20400;-69
2022/06/22 11:40:03;;;;;;;1.53;1.43;;;24.00;96.60;;;;;;5117533;28;20457;-69
2022/06/22 11:42:53;;;;;;;0.30;0.30;;;23.90;97.80;;;;;;5117373;28;20376;-70
2022/06/22 11:45:51;;;;;;;0.30;0.30;;;23.90;96.40;;;;;;5117196;28;20465;-68
2022/06/22 11:48:19;;;;;;;0.90;0.90;;;23.90;97.40;;;;;;5117612;28;20372;-70
2022/06/22 11:51:04;;;;;;;0.30;0.30;;;23.90;98.20;;;;;;5117396;28;20853;-70
2022/06/22 11:53:53;;;;;;;0.40;0.40;;;23.90;97.50;;;;;;5115880;28;20420;-70
2022/06/22 11:56:31;;;;;;;0.30;0.30;;;24.00;96.30;;;;;;5117167;28;20426;-70
2022/06/22 11:59:00;;;;;;;0.30;0.30;;;24.00;97.00;;;;;;5117411;28;20440;-70
2022/06/22 12:01:45;;;;;;;0.30;0.30;;;24.30;96.50;;;;;;5117112;28;20502;-69
2022/06/22 12:04:38;;;;;;;0.30;0.30;;;24.40;95.60;;;;;;5117180;28;20732;-70
2022/06/22 12:07:38;;;;;;;0.30;0.30;;;24.30;96.70;;;;;;5117029;28;20353;-70
2022/06/22 12:10:31;;;;;;;0.30;0.30;;;24.20;96.00;;;;;;5117085;28;20395;-70
2022/06/22 12:13:21;;;;;;;0.80;0.80;;;24.20;97.20;;;;;;5116781;28;20397;-70
2022/06/22 12:16:16;;;;;;;0.30;0.30;;;24.00;96.80;;;;;;5116797;28;20389;-69
2022/06/22 12:19:00;;;;;;;0.90;0.90;;;23.80;98.30;;;;;;5116999;28;20834;-69
2022/06/22 12:21:38;;;;;;;0.30;0.30;;;23.40;99.40;;;;;;5116920;28;20937;-69
2022/06/22 12:24:16;;;;;;;0.30;0.30;;;23.10;99.90;;;;;;5116475;28;20914;-70
2022/06/22 12:27:10;;;;;;;0.30;0.30;;;22.90;99.90;;;;;;5116658;28;20383;-69
2022/06/22 12:29:59;;;;;;;0.30;0.30;;;22.60;99.90;;;;;;5117066;28;20398;-70
2022/06/22 12:32:28;;;;;;;0.30;0.30;;;22.40;99.90;;;;;;5116392;28;20761;-70
2022/06/22 12:35:23;;;;;;;0.30;0.30;;;22.30;99.90;;;;;;5115826;28;20509;-70
2022/06/22 12:37:56;;;;;;;0.50;0.50;;;22.00;99.90;;;;;;5111701;28;20427;-69
2022/06/22 12:41:14;;;;;;;0.30;0.30;;;21.90;99.90;;;;;;5116349;28;20470;-69
2022/06/22 12:44:17;;;;;;;0.30;0.30;;;21.70;99.90;;;;;;5116198;28;20922;-70
2022/06/22 12:47:13;;;;;;;0.40;0.40;;;21.60;99.90;;;;;;5116456;28;20402;-69
2022/06/22 12:50:06;;;;;;;0.30;0.30;;;21.70;99.90;;;;;;5116365;27;20415;-69
2022/06/22 12:52:45;;;;;;;0.30;0.30;;;21.60;99.90;;;;;;5115826;28;20388;-69
2022/06/22 12:55:16;;;;;;;0.30;0.30;;;21.50;99.90;;;;;;5116122;28;20493;-70
2022/06/22 12:57:49;;;;;;;0.50;0.50;;;21.50;99.90;;;;;;5116146;28;20440;-69
2022/06/22 13:00:18;;;;;;;0.30;0.30;;;21.50;99.90;;;;;;5116151;28;20400;-70
2022/06/22 13:02:46;;;;;;;0.30;0.30;;;21.50;99.90;;;;;;5115888;27;20464;-69
2022/06/22 13:05:15;;;;;;;0.30;0.30;;;21.50;99.90;;;;;;5115815;28;20485;-70
2022/06/22 13:07:55;;;;;;;0.30;0.30;;;21.60;99.90;;;;;;5115790;28;20407;-69
2022/06/22 13:10:25;;;;;;;0.30;0.30;;;21.70;99.90;;;;;;5116101;28;20402;-68
2022/06/22 13:12:57;;;;;;;0.80;0.80;;;21.70;99.90;;;;;;5115707;28;20403;-70
2022/06/22 13:15:33;;;;;;;0.30;0.30;;;21.80;99.90;;;;;;5115584;28;20476;-69
2022/06/22 13:18:14;;;;;;;0.30;0.30;;;21.80;99.90;;;;;;5115728;28;20867;-69
2022/06/22 13:20:52;;;;;;;0.30;0.30;;;21.70;99.90;;;;;;5115862;28;20967;-69
2022/06/22 13:23:40;;;;;;;0.33;0.33;;;21.50;99.90;;;;;;5115379;28;20510;-69
2022/06/22 13:26:24;;;;;;;0.30;0.30;;;21.50;99.90;;;;;;5115631;28;20782;-70
2022/06/22 13:29:13;;;;;;;0.30;0.30;;;21.50;99.90;;;;;;5115607;28;20389;-69
2022/06/22 13:31:42;;;;;;;0.30;0.30;;;21.60;99.90;;;;;;5115338;28;20395;-69
2022/06/22 13:34:33;;;;;;;0.43;0.43;;;21.80;99.90;;;;;;5115144;28;20408;-70
2022/06/22 13:37:33;;;;;;;0.30;0.30;;;22.00;99.90;;;;;;5110231;28;20523;-70
2022/06/22 13:40:26;;;;;;;0.30;0.30;;;22.10;99.90;;;;;;5115228;28;20507;-70
2022/06/22 13:43:15;;;;;;;0.40;0.40;;;22.40;99.90;;;;;;5115337;28;20455;-69
2022/06/22 13:45:49;;;;;;;0.30;0.30;;;22.80;99.90;;;;;;5113813;28;20538;-70
2022/06/22 13:48:18;;;;;;;1.30;1.27;;;23.10;99.90;;;;;;5114813;28;20388;-69
2022/06/22 13:51:18;;;;;;;0.60;0.60;;;23.30;99.90;;;;;;5113853;28;20474;-70
2022/06/22 13:54:13;;;;;;;0.40;0.40;;;23.40;99.60;;;;;;5111503;28;20417;-70
2022/06/22 13:57:26;;;;;;;0.30;0.30;;;23.40;99.90;;;;;;5114844;28;20418;-69
2022/06/22 14:00:04;;;;;;;0.30;0.30;;;23.40;99.90;;;;;;5111112;28;20418;-69
2022/06/22 14:02:31;;;;;;;0.30;0.30;;;23.40;99.50;;;;;;5114715;27;20410;-70
2022/06/22 14:05:26;;;;;;;0.40;0.40;;;23.50;99.90;;;;;;5114612;28;20505;-70
2022/06/22 14:08:07;;;;;;;0.40;0.40;;;23.50;99.40;;;;;;5077130;28;20408;-69
2022/06/22 14:10:45;;;;;;;0.30;0.30;;;23.50;98.90;;;;;;5114700;28;20485;-70
2022/06/22 14:13:45;;;;;;;0.50;0.50;;;23.50;98.10;;;;;;5114471;28;20406;-69